Time;durP1;ratioP1;P1;durP2;ratioP2;P2;SDS_P1;SDS_P2;PMS_P1;PMS_P2;Temp;Humidity;BMP_temperature;BMP_pressure;BME280_temperature;BME280_humidity;BME280_pressure;Samples;Min_cycle;Max_cycle;Signal;HPM_P1;HPM_P2
2021/06/07 00:00:16;;;;;;;;;12.75;11.00;;;;;18.63;60.63;102209.28;5042347;28;45285;-77
2021/06/07 00:02:42;;;;;;;;;8.25;8.25;;;;;18.56;60.36;102206.03;5041542;28;45382;-77
2021/06/07 00:05:08;;;;;;;;;9.00;8.50;;;;;18.58;60.23;102212.16;5059979;28;45554;-76
2021/06/07 00:07:33;;;;;;;;;10.75;9.25;;;;;18.53;60.61;102208.84;5061121;28;45514;-77
2021/06/07 00:09:58;;;;;;;;;8.50;6.50;;;;;18.52;60.73;102210.63;5060363;28;45243;-76
2021/06/07 00:12:24;;;;;;;;;9.00;9.00;;;;;18.51;60.56;102202.72;5060179;28;45268;-79
2021/06/07 00:14:49;;;;;;;;;10.25;10.25;;;;;18.51;61.13;102202.72;5060368;28;45558;-79
2021/06/07 00:17:15;;;;;;;;;13.75;12.00;;;;;18.48;61.15;102198.38;5060850;28;45196;-79
2021/06/07 00:19:41;;;;;;;;;11.50;9.50;;;;;18.52;61.17;102196.47;5060027;28;45284;-79
2021/06/07 00:22:08;;;;;;;;;11.75;8.25;;;;;18.46;61.15;102188.75;5060334;28;45465;-79
2021/06/07 00:24:33;;;;;;;;;13.00;11.50;;;;;18.46;61.10;102191.41;5059926;28;45252;-79
2021/06/07 00:26:59;;;;;;;;;11.75;9.00;;;;;18.41;61.13;102195.13;5060202;28;46506;-79
2021/06/07 00:29:24;;;;;;;;;12.75;9.75;;;;;18.36;61.37;102190.94;5060436;28;45333;-79
2021/06/07 00:31:49;;;;;;;;;11.75;8.00;;;;;18.32;61.22;102187.56;5060135;28;45316;-79
2021/06/07 00:34:15;;;;;;;;;8.00;8.00;;;;;18.28;61.42;102189.47;5067894;28;45299;-78
2021/06/07 00:36:41;;;;;;;;;10.25;9.25;;;;;18.26;61.24;102187.81;5064218;28;45357;-78
2021/06/07 00:39:12;;;;;;;;;12.50;8.50;;;;;18.22;61.37;102185.25;5042561;28;46029;-76
2021/06/07 00:41:38;;;;;;;;;9.50;7.25;;;;;18.18;61.37;102186.31;5059562;28;45378;-76
2021/06/07 00:44:11;;;;;;;;;8.00;8.00;;;;;18.12;61.29;102181.25;5041307;28;47115;-76
2021/06/07 00:46:37;;;;;;;;;7.50;7.50;;;;;18.13;61.75;102180.31;5059972;28;45447;-76
2021/06/07 00:49:04;;;;;;;;;11.75;9.50;;;;;18.11;61.61;102184.81;5059477;28;45221;-76
2021/06/07 00:51:31;;;;;;;;;10.75;10.00;;;;;18.09;62.18;102186.69;5072368;28;45323;-76
2021/06/07 00:53:56;;;;;;;;;9.25;7.50;;;;;18.06;61.94;102192.13;5041158;28;46248;-76
2021/06/07 00:56:22;;;;;;;;;7.00;7.00;;;;;18.02;61.85;102190.53;5059186;28;45480;-76
2021/06/07 00:58:49;;;;;;;;;7.50;6.75;;;;;17.97;61.75;102186.28;5059588;28;45339;-76
2021/06/07 01:01:17;;;;;;;;;10.00;7.75;;;;;17.95;62.27;102189.94;5059018;28;45219;-76
2021/06/07 01:03:44;;;;;;;;;8.00;7.50;;;;;17.91;61.67;102181.19;5057327;28;45434;-80
2021/06/07 01:06:10;;;;;;;;;7.25;7.25;;;;;17.86;62.04;102188.50;5060404;28;46583;-80
2021/06/07 01:08:36;;;;;;;;;7.25;7.25;;;;;17.84;61.56;102193.91;5070482;28;45417;-81
2021/06/07 01:11:03;;;;;;;;;10.75;10.00;;;;;17.85;61.78;102189.44;5041703;28;45324;-80
2021/06/07 01:13:28;;;;;;;;;10.75;7.50;;;;;17.80;61.68;102188.78;5059787;28;45515;-81
2021/06/07 01:15:56;;;;;;;;;7.25;6.00;;;;;17.73;61.94;102180.19;5063308;28;46632;-80
2021/06/07 01:18:26;;;;;;;;;7.75;7.75;;;;;17.74;62.06;102192.53;5063018;28;45614;-81
2021/06/07 01:20:54;;;;;;;;;7.75;7.75;;;;;17.69;62.34;102179.44;5063847;28;45276;-81
2021/06/07 01:23:20;;;;;;;;;8.50;7.00;;;;;17.69;62.31;102190.06;5063663;28;45252;-80
2021/06/07 01:25:46;;;;;;;;;9.25;8.00;;;;;17.66;62.56;102196.38;5063470;28;45242;-80
2021/06/07 01:28:16;;;;;;;;;10.00;9.50;;;;;17.61;62.04;102193.03;5063379;28;45745;-81
2021/06/07 01:30:44;;;;;;;;;11.25;10.75;;;;;17.58;62.36;102190.47;5063170;28;45367;-81
2021/06/07 01:33:12;;;;;;;;;11.25;9.25;;;;;17.54;62.66;102192.41;5063095;28;45556;-81
2021/06/07 01:35:40;;;;;;;;;11.25;10.25;;;;;17.50;62.74;102190.81;5063738;28;45306;-81
2021/06/07 01:38:06;;;;;;;;;15.00;12.75;;;;;17.49;62.59;102185.53;5062979;28;45300;-81
2021/06/07 01:40:36;;;;;;;;;13.00;11.75;;;;;17.45;63.22;102200.75;5028765;28;45361;-81
2021/06/07 01:43:01;;;;;;;;;15.25;13.00;;;;;17.40;63.07;102182.31;5047746;28;47402;-80
2021/06/07 01:45:29;;;;;;;;;12.75;11.25;;;;;17.38;63.05;102188.63;5053656;28;48352;-77
2021/06/07 01:47:58;;;;;;;;;13.25;13.25;;;;;17.39;63.12;102187.69;5062167;28;45881;-77
2021/06/07 01:50:23;;;;;;;;;14.50;14.00;;;;;17.36;63.27;102188.66;5051729;28;45566;-76
2021/06/07 01:52:50;;;;;;;;;14.75;14.00;;;;;17.34;63.48;102187.00;5070503;28;45484;-76
2021/06/07 01:55:15;;;;;;;;;19.00;18.75;;;;;17.31;63.51;102191.50;5065527;28;45981;-76
2021/06/07 01:57:42;;;;;;;;;21.00;19.50;;;;;17.25;63.51;102181.13;5062476;28;45254;-80
2021/06/07 02:00:13;;;;;;;;;22.75;20.00;;;;;17.23;63.73;102180.31;5063194;28;45202;-80
2021/06/07 02:02:46;;;;;;;;;19.75;15.50;;;;;17.21;63.58;102185.69;5042477;28;47449;-81
2021/06/07 02:05:15;;;;;;;;;19.50;17.25;;;;;17.15;63.52;102174.41;5061282;28;46437;-80
2021/06/07 02:07:51;;;;;;;;;25.50;21.50;;;;;17.17;63.83;102180.53;5062103;28;45649;-80
2021/06/07 02:10:16;;;;;;;;;15.75;14.25;;;;;17.14;63.79;102181.50;5046661;28;45466;-80
2021/06/07 02:12:43;;;;;;;;;15.75;13.25;;;;;17.13;63.64;102179.78;5079522;28;45435;-78
2021/06/07 02:15:10;;;;;;;;;19.25;14.25;;;;;17.09;63.76;102175.47;5062315;28;45329;-78
2021/06/07 02:17:35;;;;;;;;;12.25;12.25;;;;;17.09;63.91;102179.00;5062247;28;45225;-78
2021/06/07 02:20:02;;;;;;;;;13.75;12.00;;;;;17.08;63.76;102174.63;5062256;28;45324;-78
2021/06/07 02:22:27;;;;;;;;;13.50;12.50;;;;;17.03;64.06;102173.94;5062449;28;45410;-78
2021/06/07 02:24:53;;;;;;;;;14.00;13.25;;;;;17.05;64.29;102174.75;5068207;28;45470;-79
2021/06/07 02:27:18;;;;;;;;;17.75;13.75;;;;;17.04;64.29;102185.44;5062423;28;45308;-76
2021/06/07 02:29:43;;;;;;;;;12.75;12.75;;;;;17.04;64.69;102174.81;5062341;28;45452;-76
2021/06/07 02:32:09;;;;;;;;;9.25;7.50;;;;;16.97;64.56;102174.16;5061797;28;45232;-76
2021/06/07 02:34:36;;;;;;;;;13.75;12.75;;;;;16.96;64.74;102175.09;5061571;28;45418;-76
2021/06/07 02:37:02;;;;;;;;;10.50;10.50;;;;;16.88;64.37;102167.41;5061903;28;45278;-83
2021/06/07 02:39:27;;;;;;;;;8.50;8.50;;;;;16.91;64.28;102182.38;5062618;28;45224;-80
2021/06/07 02:41:53;;;;;;;;;8.50;8.25;;;;;16.87;64.67;102169.19;5062220;28;45402;-81
2021/06/07 02:44:21;;;;;;;;;12.50;9.50;;;;;16.89;64.15;102176.25;5061532;28;45306;-80
2021/06/07 02:46:46;;;;;;;;;13.00;10.25;;;;;16.86;64.48;102177.22;5062259;28;45252;-80
2021/06/07 02:49:12;;;;;;;;;8.75;8.75;;;;;16.87;64.82;102182.47;5065078;28;45343;-77
2021/06/07 02:51:37;;;;;;;;;9.50;9.50;;;;;16.85;64.67;102181.66;5054164;28;46048;-78
2021/06/07 02:54:04;;;;;;;;;11.25;10.25;;;;;16.80;64.63;102173.00;5043402;28;47446;-80
2021/06/07 02:56:30;;;;;;;;;14.00;10.00;;;;;16.80;64.78;102180.97;5043999;28;45639;-79
2021/06/07 02:58:55;;;;;;;;;9.00;7.75;;;;;16.81;64.67;102176.53;5062061;28;45165;-78
2021/06/07 03:01:20;;;;;;;;;10.75;10.25;;;;;16.82;64.50;102184.44;5061887;28;45557;-77
2021/06/07 03:03:46;;;;;;;;;10.50;9.75;;;;;16.76;65.09;102179.34;5062111;28;45169;-77
2021/06/07 03:06:11;;;;;;;;;11.75;11.25;;;;;16.79;64.50;102187.19;5073117;28;45207;-76
2021/06/07 03:08:36;;;;;;;;;7.25;7.25;;;;;16.76;64.50;102174.03;5061188;28;45252;-76
2021/06/07 03:11:11;;;;;;;;;8.00;8.00;;;;;16.79;64.78;102186.34;5061574;28;45229;-76
2021/06/07 03:13:38;;;;;;;;;11.00;9.50;;;;;16.79;64.69;102189.00;5060078;28;45267;-76
2021/06/07 03:16:04;;;;;;;;;10.75;8.00;;;;;16.74;64.56;102186.50;5061012;28;45347;-76
2021/06/07 03:18:30;;;;;;;;;10.00;10.00;;;;;16.73;64.93;102184.75;5045601;28;45283;-77
2021/06/07 03:20:56;;;;;;;;;9.50;9.50;;;;;16.73;64.81;102184.75;5061346;28;45429;-77
2021/06/07 03:23:27;;;;;;;;;12.25;11.75;;;;;16.68;64.87;102169.00;5051512;28;46931;-76
2021/06/07 03:25:53;;;;;;;;;11.00;9.25;;;;;16.67;64.80;102177.03;5048269;28;45601;-81
2021/06/07 03:28:20;;;;;;;;;10.75;10.75;;;;;16.63;65.07;102179.78;5061786;28;45425;-80
2021/06/07 03:30:46;;;;;;;;;11.25;8.75;;;;;16.63;65.16;102181.56;5073786;28;45428;-79
2021/06/07 03:33:13;;;;;;;;;10.75;10.25;;;;;16.61;65.05;102184.28;5060971;28;45583;-79
2021/06/07 03:35:40;;;;;;;;;9.50;9.25;;;;;16.57;65.05;102185.31;5061366;28;45260;-79
2021/06/07 03:38:07;;;;;;;;;7.75;7.75;;;;;16.59;65.36;102180.84;5039040;28;45304;-79
2021/06/07 03:40:36;;;;;;;;;10.50;9.50;;;;;16.57;65.27;102173.84;5059585;28;45173;-79
2021/06/07 03:43:03;;;;;;;;;9.75;9.75;;;;;16.58;65.22;102175.56;5042936;28;47570;-79
2021/06/07 03:45:28;;;;;;;;;9.75;9.75;;;;;16.58;65.08;102175.56;5061153;28;45316;-80
2021/06/07 03:47:54;;;;;;;;;10.50;7.75;;;;;16.52;65.16;102173.97;5061305;28;45192;-80
2021/06/07 03:50:23;;;;;;;;;9.75;8.75;;;;;16.54;65.21;102177.47;5060952;28;45712;-80
2021/06/07 03:52:48;;;;;;;;;8.00;8.00;;;;;16.50;65.27;102173.16;5059193;28;45220;-81
2021/06/07 03:55:16;;;;;;;;;11.25;10.50;;;;;16.50;65.33;102178.47;5043163;28;45192;-81
2021/06/07 03:57:42;;;;;;;;;11.00;10.00;;;;;16.48;64.99;102178.53;5061322;28;45327;-81
2021/06/07 04:00:10;;;;;;;;;11.75;10.75;;;;;16.47;65.44;102179.44;5054994;28;46103;-80
2021/06/07 04:02:36;;;;;;;;;10.75;8.25;;;;;16.48;65.38;102177.66;5040548;28;48017;-80
2021/06/07 04:05:02;;;;;;;;;12.50;10.50;;;;;16.46;65.10;102182.16;5041805;28;45334;-79
2021/06/07 04:07:28;;;;;;;;;11.25;9.50;;;;;16.45;65.42;102177.78;5061249;28;45220;-79
2021/06/07 04:09:53;;;;;;;;;13.00;11.75;;;;;16.42;65.25;102174.31;5060850;28;45505;-77
2021/06/07 04:12:19;;;;;;;;;11.50;11.50;;;;;16.42;64.82;102171.66;5060662;28;45745;-77
2021/06/07 04:14:44;;;;;;;;;8.75;8.75;;;;;16.41;65.52;102175.25;5060786;28;45280;-79
2021/06/07 04:17:09;;;;;;;;;9.50;9.50;;;;;16.41;65.53;102169.94;5067293;28;45363;-80
2021/06/07 04:19:36;;;;;;;;;9.50;9.50;;;;;16.44;65.17;102168.09;5041170;28;46009;-82
2021/06/07 04:22:01;;;;;;;;;13.25;11.50;;;;;16.44;65.46;102178.72;5060306;28;46706;-79
2021/06/07 04:24:27;;;;;;;;;14.00;11.00;;;;;16.44;65.51;102178.72;5071866;28;45314;-76
2021/06/07 04:26:52;;;;;;;;;9.50;9.50;;;;;16.44;65.30;102176.94;5060509;28;45299;-76
2021/06/07 04:29:18;;;;;;;;;11.00;11.00;;;;;16.42;65.71;102181.44;5050470;28;47376;-79
2021/06/07 04:31:43;;;;;;;;;10.25;10.25;;;;;16.42;65.49;102179.63;5060016;28;45327;-77
2021/06/07 04:34:09;;;;;;;;;14.00;13.00;;;;;16.41;65.35;102175.25;5059628;28;45277;-77
2021/06/07 04:36:35;;;;;;;;;13.00;10.50;;;;;16.40;65.48;102173.50;5060047;28;45170;-76
2021/06/07 04:39:01;;;;;;;;;11.75;9.75;;;;;16.40;65.59;102167.31;5069091;28;45486;-76
2021/06/07 04:41:26;;;;;;;;;12.75;10.75;;;;;16.45;65.53;102180.44;5063933;28;45989;-76
2021/06/07 04:43:51;;;;;;;;;10.00;9.25;;;;;16.42;65.55;102176.97;5058789;28;45280;-76
2021/06/07 04:46:17;;;;;;;;;12.75;11.25;;;;;16.39;65.68;102170.91;5059774;28;45236;-76
2021/06/07 04:48:42;;;;;;;;;11.75;11.25;;;;;16.42;65.83;102176.97;5045292;28;46406;-76
2021/06/07 04:51:08;;;;;;;;;12.25;12.25;;;;;16.45;65.35;102180.44;5069432;28;45304;-76
2021/06/07 04:53:33;;;;;;;;;13.25;9.75;;;;;16.48;65.37;102175.03;5059076;28;45456;-77
2021/06/07 04:55:59;;;;;;;;;16.75;12.50;;;;;16.48;65.52;102175.03;5060097;28;45358;-78
2021/06/07 04:58:29;;;;;;;;;13.25;11.25;;;;;16.50;65.64;102178.47;5057414;28;47208;-78
2021/06/07 05:01:01;;;;;;;;;16.50;12.00;;;;;16.51;65.29;102175.78;5029603;28;47255;-78
2021/06/07 05:03:27;;;;;;;;;11.75;10.25;;;;;16.55;65.72;102173.88;5038601;28;45482;-77
2021/06/07 05:05:57;;;;;;;;;11.75;10.25;;;;;16.58;65.64;102170.25;5051984;28;45260;-77
2021/06/07 05:08:27;;;;;;;;;16.75;12.75;;;;;16.59;65.88;102172.00;5059551;28;45234;-77
2021/06/07 05:10:53;;;;;;;;;14.00;11.00;;;;;16.59;65.37;102180.84;5041648;28;48486;-77
2021/06/07 05:13:19;;;;;;;;;12.75;10.75;;;;;16.61;65.04;102184.28;5059654;28;45255;-77
2021/06/07 05:15:44;;;;;;;;;15.25;13.25;;;;;16.62;65.21;102188.66;5059857;28;45383;-77
2021/06/07 05:18:11;;;;;;;;;14.50;11.50;;;;;16.65;65.06;102180.59;5059442;28;45438;-77
2021/06/07 05:20:36;;;;;;;;;12.00;10.25;;;;;16.68;65.09;102194.69;5041540;28;48387;-77
2021/06/07 05:23:03;;;;;;;;;11.50;10.50;;;;;16.69;64.50;102191.13;5058704;28;45500;-77
2021/06/07 05:25:31;;;;;;;;;11.00;10.50;;;;;16.68;64.90;102176.09;5062718;28;45339;-76
2021/06/07 05:27:58;;;;;;;;;12.50;9.00;;;;;16.73;64.59;102184.75;5055505;28;45830;-76
2021/06/07 05:30:26;;;;;;;;;9.50;9.50;;;;;16.76;64.96;102189.97;5056754;28;46977;-76
2021/06/07 05:32:52;;;;;;;;;10.00;9.75;;;;;16.75;64.32;102183.78;5056211;28;45303;-76
2021/06/07 05:35:19;;;;;;;;;13.50;11.75;;;;;16.74;63.80;102179.38;5039640;28;45326;-76
2021/06/07 05:37:44;;;;;;;;;10.50;9.50;;;;;16.72;64.38;102177.72;5056068;28;45458;-76
2021/06/07 05:40:11;;;;;;;;;12.75;12.25;;;;;16.73;63.98;102182.97;5055820;28;45334;-76
2021/06/07 05:42:37;;;;;;;;;13.50;10.75;;;;;16.77;63.83;102181.06;5053536;28;45406;-77
2021/06/07 05:45:06;;;;;;;;;10.75;10.00;;;;;16.80;63.60;102188.94;5057945;28;45519;-77
2021/06/07 05:47:32;;;;;;;;;11.75;10.00;;;;;16.77;63.88;102186.38;5057794;28;45493;-77
2021/06/07 05:49:57;;;;;;;;;13.75;11.25;;;;;16.81;63.96;102188.03;5050807;28;46005;-77
2021/06/07 05:52:22;;;;;;;;;12.00;11.50;;;;;16.85;63.65;102191.41;5042151;28;45440;-77
2021/06/07 05:54:48;;;;;;;;;10.00;10.00;;;;;16.88;63.48;102188.66;5059432;28;45258;-77
2021/06/07 05:57:13;;;;;;;;;11.75;9.75;;;;;16.94;63.29;102193.72;5057158;28;45838;-77
2021/06/07 05:59:39;;;;;;;;;14.75;13.50;;;;;16.94;62.78;102191.06;5057351;28;46202;-77
2021/06/07 06:02:06;;;;;;;;;11.00;10.50;;;;;17.01;62.56;102199.69;5051098;28;45937;-77
2021/06/07 06:04:32;;;;;;;;;10.75;9.75;;;;;17.04;62.89;102198.72;5034476;28;45367;-77
2021/06/07 06:06:58;;;;;;;;;14.25;12.25;;;;;17.09;62.94;102194.06;5054765;28;45422;-77
2021/06/07 06:09:24;;;;;;;;;6.75;6.50;;;;;17.14;62.19;102196.56;5050150;28;46925;-77
2021/06/07 06:11:49;;;;;;;;;11.50;9.75;;;;;17.18;62.26;102200.88;5055095;28;45401;-77
2021/06/07 06:14:14;;;;;;;;;14.25;13.00;;;;;17.23;62.54;102198.91;5050519;28;45202;-77
2021/06/07 06:16:39;;;;;;;;;11.50;10.75;;;;;17.30;62.16;102199.53;5044168;28;47181;-77
2021/06/07 06:19:05;;;;;;;;;13.75;11.25;;;;;17.32;62.18;102193.25;5060909;28;45254;-77
2021/06/07 06:21:31;;;;;;;;;16.75;13.50;;;;;17.38;61.93;102194.81;5060905;28;45276;-77
2021/06/07 06:23:57;;;;;;;;;9.25;9.25;;;;;17.46;61.66;102201.63;5056468;28;45138;-77
2021/06/07 06:26:23;;;;;;;;;12.25;11.50;;;;;17.50;62.28;102196.13;5065294;28;45403;-77
2021/06/07 06:28:49;;;;;;;;;12.75;11.50;;;;;17.58;62.16;102208.25;5047815;28;47581;-77
2021/06/07 06:31:15;;;;;;;;;14.25;10.00;;;;;17.61;62.49;102203.66;5061670;28;45694;-77
2021/06/07 06:33:41;;;;;;;;;13.50;12.75;;;;;17.70;62.11;102207.75;5062205;28;45266;-76
2021/06/07 06:36:08;;;;;;;;;11.25;10.50;;;;;17.71;61.86;102204.16;5062140;28;45368;-76
2021/06/07 06:38:34;;;;;;;;;12.00;11.50;;;;;17.79;61.72;102202.97;5060946;28;45996;-76
2021/06/07 06:40:59;;;;;;;;;11.50;11.50;;;;;17.81;61.14;102196.66;5040261;28;45316;-76
2021/06/07 06:43:25;;;;;;;;;12.50;12.00;;;;;17.82;60.51;102200.19;5060398;28;45465;-76
2021/06/07 06:45:51;;;;;;;;;7.00;7.00;;;;;17.82;61.48;102190.44;5061906;28;45268;-76
2021/06/07 06:48:16;;;;;;;;;14.00;11.50;;;;;17.91;61.03;102197.16;5044697;28;45433;-76
2021/06/07 06:50:43;;;;;;;;;14.50;12.50;;;;;17.95;60.48;102189.94;5055186;28;45521;-76
2021/06/07 06:53:13;;;;;;;;;12.75;12.75;;;;;17.96;61.17;102191.66;5034156;28;45303;-76
2021/06/07 06:55:40;;;;;;;;;21.00;15.25;;;;;17.95;60.56;102185.47;5029304;28;45658;-76
2021/06/07 06:58:07;;;;;;;;;16.25;13.25;;;;;17.95;60.87;102196.09;5036285;28;46247;-76
2021/06/07 07:00:36;;;;;;;;;15.25;14.00;;;;;17.97;60.19;102190.72;5041034;28;45235;-76
2021/06/07 07:03:13;;;;;;;;;11.50;11.00;;;;;17.98;60.79;102188.00;5029084;28;45355;-76
2021/06/07 07:05:40;;;;;;;;;24.50;17.75;;;;;18.01;59.96;102187.00;5039651;28;45403;-76
2021/06/07 07:08:06;;;;;;;;;18.25;13.25;;;;;18.02;60.94;102191.41;5028869;28;46149;-76
2021/06/07 07:10:33;;;;;;;;;9.00;9.00;;;;;18.08;60.62;102190.28;5028285;28;45381;-76
2021/06/07 07:12:59;;;;;;;;;18.50;12.50;;;;;18.17;60.41;102195.22;5041308;28;45247;-76
2021/06/07 07:15:24;;;;;;;;;16.25;14.25;;;;;18.21;60.42;102185.34;5041091;28;45457;-76
2021/06/07 07:17:50;;;;;;;;;18.25;14.75;;;;;18.31;60.22;102192.00;5041253;28;45260;-76
2021/06/07 07:20:15;;;;;;;;;14.50;13.00;;;;;18.37;60.36;102193.50;5033735;28;45301;-76
2021/06/07 07:22:42;;;;;;;;;18.25;16.00;;;;;18.41;59.29;102192.47;5036925;28;45383;-76
2021/06/07 07:25:08;;;;;;;;;19.75;16.50;;;;;18.48;59.08;102189.53;5035120;28;45461;-77
2021/06/07 07:27:36;;;;;;;;;18.25;16.75;;;;;18.51;59.33;102192.06;5031152;28;45424;-76
2021/06/07 07:30:11;;;;;;;;;14.75;14.25;;;;;18.58;59.28;102190.88;5040882;28;45629;-76
2021/06/07 07:32:38;;;;;;;;;17.75;15.75;;;;;18.65;58.97;102194.97;5041664;28;45347;-77
2021/06/07 07:35:04;;;;;;;;;20.25;14.00;;;;;18.72;58.87;102187.56;5028682;28;45667;-76
2021/06/07 07:37:30;;;;;;;;;22.25;18.75;;;;;18.78;57.84;102189.97;5039288;28;45376;-76
2021/06/07 07:39:55;;;;;;;;;15.75;13.00;;;;;18.83;58.61;102186.25;5040704;28;45339;-76
2021/06/07 07:42:21;;;;;;;;;23.25;21.00;;;;;18.86;57.67;102186.97;5035670;28;45406;-76
2021/06/07 07:44:46;;;;;;;;;23.00;21.00;;;;;18.92;57.80;102184.94;5038577;28;45435;-76
2021/06/07 07:47:12;;;;;;;;;19.25;16.50;;;;;18.95;57.95;102184.81;5027992;28;46138;-76
2021/06/07 07:49:37;;;;;;;;;17.50;16.75;;;;;19.02;58.11;102191.59;5027465;28;45301;-77
2021/06/07 07:52:04;;;;;;;;;18.75;17.00;;;;;19.07;58.12;102188.72;5041569;28;45324;-77
2021/06/07 07:54:31;;;;;;;;;18.75;17.00;;;;;19.16;56.55;102187.44;5048254;28;45285;-76
2021/06/07 07:56:57;;;;;;;;;13.75;13.50;;;;;19.21;57.17;102186.28;5060474;28;45283;-76
2021/06/07 07:59:22;;;;;;;;;19.25;15.75;;;;;19.29;57.09;102188.59;5060544;28;45297;-77
2021/06/07 08:01:48;;;;;;;;;21.25;16.00;;;;;19.36;56.02;102183.00;5064316;28;45409;-77
2021/06/07 08:04:13;;;;;;;;;17.50;17.50;;;;;19.40;55.31;102190.78;5050757;28;45421;-77
2021/06/07 08:06:40;;;;;;;;;16.00;15.50;;;;;19.44;55.99;102186.16;5051532;28;45966;-76
2021/06/07 08:09:05;;;;;;;;;20.50;19.75;;;;;19.47;54.87;102183.34;5050372;28;45439;-76
2021/06/07 08:11:31;;;;;;;;;20.00;17.75;;;;;19.47;55.38;102180.66;5053974;28;45299;-76
2021/06/07 08:13:56;;;;;;;;;18.75;16.50;;;;;19.50;55.42;102177.88;5048126;28;45243;-77
2021/06/07 08:16:22;;;;;;;;;17.00;15.50;;;;;19.58;55.64;102184.63;5055002;28;45344;-77
2021/06/07 08:18:47;;;;;;;;;23.00;18.75;;;;;19.64;55.11;102178.97;5055657;28;45456;-77
2021/06/07 08:21:13;;;;;;;;;21.00;17.25;;;;;19.72;53.11;102170.59;5053699;28;45281;-77
2021/06/07 08:23:38;;;;;;;;;15.50;14.50;;;;;19.77;54.65;102179.25;5059418;28;45354;-77
2021/06/07 08:26:04;;;;;;;;;19.75;17.00;;;;;19.81;53.32;102177.28;5057449;28;46053;-77
2021/06/07 08:28:29;;;;;;;;;18.25;16.50;;;;;19.78;53.55;102175.63;5060140;28;45186;-77
2021/06/07 08:30:54;;;;;;;;;17.75;14.50;;;;;19.79;53.48;102172.03;5043216;28;45527;-77
2021/06/07 08:33:20;;;;;;;;;17.00;15.25;;;;;19.85;51.07;102178.88;5054765;28;45208;-77
2021/06/07 08:35:45;;;;;;;;;16.00;15.00;;;;;19.87;52.51;102174.31;5041541;28;46799;-77
2021/06/07 08:38:11;;;;;;;;;15.75;14.75;;;;;19.95;52.86;102180.13;5059893;28;45281;-77
2021/06/07 08:40:36;;;;;;;;;13.75;13.25;;;;;19.97;52.53;102178.25;5059737;28;45294;-77
2021/06/07 08:43:01;;;;;;;;;16.75;14.75;;;;;19.99;52.07;102178.19;5054693;28;46040;-76
2021/06/07 08:45:27;;;;;;;;;19.25;16.25;;;;;20.05;51.84;102179.69;5039268;28;46079;-77
2021/06/07 08:47:54;;;;;;;;;17.00;14.50;;;;;20.09;52.06;102174.09;5059852;28;46697;-77
2021/06/07 08:50:26;;;;;;;;;16.50;13.75;;;;;20.17;52.15;102179.09;5059100;28;45343;-76
2021/06/07 08:52:51;;;;;;;;;16.00;12.50;;;;;20.23;51.78;102177.88;5056517;28;45457;-76
2021/06/07 08:55:20;;;;;;;;;10.25;8.50;;;;;20.32;52.33;102173.91;5062274;28;45835;-76
2021/06/07 08:57:50;;;;;;;;;14.50;13.50;;;;;20.39;51.89;102172.63;5058900;28;45512;-76
2021/06/07 09:00:19;;;;;;;;;14.25;14.00;;;;;20.43;50.16;102176.88;5057719;28;45300;-77
2021/06/07 09:02:45;;;;;;;;;15.25;11.75;;;;;20.43;48.89;102174.19;5049547;28;45640;-76
2021/06/07 09:05:12;;;;;;;;;15.50;12.50;;;;;20.50;49.69;102174.72;5051366;28;46269;-76
2021/06/07 09:08:01;;;;;;;;;16.50;15.00;;;;;20.50;50.42;102180.06;5050654;28;45324;-76
2021/06/07 09:10:36;;;;;;;;;14.75;14.25;;;;;20.55;49.01;102175.34;5043920;28;45261;-76
2021/06/07 09:13:05;;;;;;;;;15.25;12.75;;;;;20.59;48.98;102173.41;5048892;28;45157;-76
2021/06/07 09:15:30;;;;;;;;;11.00;10.50;;;;;20.63;49.36;102174.06;5059250;28;45268;-76
2021/06/07 09:17:56;;;;;;;;;11.00;11.00;;;;;20.67;48.66;102176.50;5049231;28;45573;-76
2021/06/07 09:20:22;;;;;;;;;8.50;8.00;;;;;20.73;47.81;102177.13;5058014;28;45501;-76
2021/06/07 09:22:52;;;;;;;;;10.75;9.75;;;;;20.78;48.12;102177.75;5059279;28;45299;-77
2021/06/07 09:25:19;;;;;;;;;10.75;9.50;;;;;20.82;44.86;102173.09;5043332;28;45468;-77
2021/06/07 09:28:14;;;;;;;;;10.00;10.00;;;;;20.86;44.14;102180.00;5051709;28;45395;-76
2021/06/07 09:31:02;;;;;;;;;9.50;7.50;;;;;20.88;44.61;102176.31;5058895;28;45381;-76
2021/06/07 09:33:28;;;;;;;;;6.00;6.00;;;;;20.94;46.72;102176.91;5058159;28;45481;-77
2021/06/07 09:36:21;;;;;;;;;10.50;9.75;;;;;20.98;44.83;102178.47;5053913;28;47406;-77
2021/06/07 09:39:12;;;;;;;;;10.75;10.00;;;;;21.00;45.57;102179.25;5061842;28;45512;-77
2021/06/07 09:42:10;;;;;;;;;11.00;9.75;;;;;21.05;45.78;102177.22;5062276;28;45502;-77
2021/06/07 09:44:53;;;;;;;;;8.50;7.00;;;;;21.10;45.68;102180.50;5052273;28;45533;-77
2021/06/07 09:47:32;;;;;;;;;7.25;6.00;;;;;21.17;46.28;102178.34;5062073;28;45320;-77
2021/06/07 09:50:04;;;;;;;;;8.25;5.50;;;;;21.21;44.95;102187.06;5062195;28;45884;-77
2021/06/07 09:52:45;;;;;;;;;7.75;7.25;;;;;21.22;43.40;102175.41;5062201;28;45307;-77
2021/06/07 09:55:19;;;;;;;;;8.75;8.75;;;;;21.29;44.52;102176.78;5062542;28;45276;-77
2021/06/07 09:57:57;;;;;;;;;8.50;5.75;;;;;21.37;43.67;102173.69;5061795;28;46004;-77
2021/06/07 10:00:48;;;;;;;;;4.75;4.75;;;;;21.44;41.23;102179.53;5056277;28;45945;-77
2021/06/07 10:03:14;;;;;;;;;5.50;5.25;;;;;21.50;42.83;102173.84;5058314;28;45339;-77
2021/06/07 10:05:40;;;;;;;;;5.50;5.00;;;;;21.52;42.28;102171.97;5043936;28;46129;-76
2021/06/07 10:08:05;;;;;;;;;7.00;7.00;;;;;21.56;41.82;102168.13;5060289;28;46043;-76
2021/06/07 10:10:30;;;;;;;;;8.50;7.00;;;;;21.63;40.36;102178.50;5061846;28;45414;-76
2021/06/07 10:13:04;;;;;;;;;8.25;8.25;;;;;21.74;41.08;102160.00;5060802;28;45509;-76
2021/06/07 10:15:36;;;;;;;;;8.00;8.00;;;;;21.80;38.63;102167.66;5037095;28;47044;-76
2021/06/07 10:18:05;;;;;;;;;7.25;7.25;;;;;21.86;39.66;102158.44;5054317;28;45506;-76
2021/06/07 10:22:58;;;;;;;;;7.00;6.25;;;;;21.92;39.23;102163.47;5061731;28;45809;-76
2021/06/07 10:25:24;;;;;;;;;6.00;6.00;;;;;22.00;38.64;102154.94;5040843;28;45174;-76
2021/06/07 10:27:50;;;;;;;;;6.50;6.00;;;;;22.05;39.79;102154.66;5040311;28;45967;-76
2021/06/07 10:30:19;;;;;;;;;6.75;5.75;;;;;22.14;38.56;102161.31;5040759;28;45722;-76
2021/06/07 10:32:46;;;;;;;;;7.75;7.75;;;;;22.21;38.70;102154.63;5041636;28;45286;-76
2021/06/07 10:35:12;;;;;;;;;3.25;3.25;;;;;22.28;40.84;102154.25;5039697;28;45346;-76
2021/06/07 10:38:10;;;;;;;;;9.25;8.00;;;;;22.35;40.88;102150.22;5036784;28;45406;-77
2021/06/07 10:40:43;;;;;;;;;8.50;7.25;;;;;22.39;41.18;102142.88;5041086;28;45522;-76
2021/06/07 10:43:11;;;;;;;;;13.00;10.50;;;;;22.36;39.76;102157.31;5040741;28;45217;-76
2021/06/07 10:45:41;;;;;;;;;10.25;10.00;;;;;22.35;39.21;102155.59;5040281;28;46079;-76
2021/06/07 10:48:09;;;;;;;;;6.75;6.75;;;;;22.41;41.36;102147.19;5040536;28;45505;-76
2021/06/07 10:50:44;;;;;;;;;9.00;9.00;;;;;22.49;39.43;102150.25;5040210;28;45525;-76
2021/06/07 10:53:24;;;;;;;;;9.00;7.50;;;;;22.52;41.25;102143.00;5039247;28;45517;-76
2021/06/07 10:56:03;;;;;;;;;9.75;9.50;;;;;22.54;38.92;102152.66;5039786;28;46091;-76
2021/06/07 10:58:29;;;;;;;;;11.75;11.75;;;;;22.57;38.33;102149.75;5041086;28;46354;-76
2021/06/07 11:00:59;;;;;;;;;7.75;7.00;;;;;22.64;38.85;102147.59;5040931;28;45203;-76
2021/06/07 11:03:29;;;;;;;;;11.75;10.00;;;;;22.73;40.18;102148.84;5045189;28;45489;-76
2021/06/07 11:05:57;;;;;;;;;9.50;8.00;;;;;22.76;40.34;102145.97;5032340;28;45934;-76
2021/06/07 11:08:29;;;;;;;;;7.00;7.00;;;;;22.75;40.46;102146.94;5040112;28;45551;-76
2021/06/07 11:11:08;;;;;;;;;9.50;9.00;;;;;22.79;39.65;102147.63;5041028;28;45346;-76
2021/06/07 11:13:45;;;;;;;;;11.25;9.00;;;;;22.84;38.32;102150.84;5040800;28;45261;-76
2021/06/07 11:16:31;;;;;;;;;14.50;10.25;;;;;22.91;38.41;102141.47;5040556;28;45364;-76
2021/06/07 11:18:58;;;;;;;;;9.50;9.50;;;;;23.01;38.37;102140.88;5045544;28;45295;-76